sensor_id;sensor_type;location;lat;lon;timestamp;P1;durP1;ratioP1;P2;durP2;ratioP2
5199;SDS011;2619;47.868;11.892;2023-02-28T00:00:44;3.87;;;2.47;;
5199;SDS011;2619;47.868;11.892;2023-02-28T00:03:09;6.07;;;3.50;;
5199;SDS011;2619;47.868;11.892;2023-02-28T00:05:35;6.80;;;3.30;;
5199;SDS011;2619;47.868;11.892;2023-02-28T00:08:00;7.33;;;4.57;;
5199;SDS011;2619;47.868;11.892;2023-02-28T00:10:27;6.50;;;5.00;;
5199;SDS011;2619;47.868;11.892;2023-02-28T00:12:55;5.73;;;3.60;;
5199;SDS011;2619;47.868;11.892;2023-02-28T00:15:23;6.20;;;3.70;;
5199;SDS011;2619;47.868;11.892;2023-02-28T00:17:49;4.70;;;2.73;;
5199;SDS011;2619;47.868;11.892;2023-02-28T00:20:15;6.40;;;4.07;;
5199;SDS011;2619;47.868;11.892;2023-02-28T00:22:42;4.80;;;3.40;;
5199;SDS011;2619;47.868;11.892;2023-02-28T00:25:13;9.57;;;3.87;;
5199;SDS011;2619;47.868;11.892;2023-02-28T00:27:41;6.80;;;3.40;;
5199;SDS011;2619;47.868;11.892;2023-02-28T00:30:08;6.60;;;3.50;;
5199;SDS011;2619;47.868;11.892;2023-02-28T00:32:36;6.20;;;3.57;;
5199;SDS011;2619;47.868;11.892;2023-02-28T00:35:02;6.13;;;2.93;;
5199;SDS011;2619;47.868;11.892;2023-02-28T00:37:27;5.50;;;3.47;;
5199;SDS011;2619;47.868;11.892;2023-02-28T00:39:53;4.47;;;3.10;;
5199;SDS011;2619;47.868;11.892;2023-02-28T00:42:18;7.27;;;3.83;;
5199;SDS011;2619;47.868;11.892;2023-02-28T00:44:44;7.50;;;4.70;;
5199;SDS011;2619;47.868;11.892;2023-02-28T00:47:10;5.87;;;3.03;;
5199;SDS011;2619;47.868;11.892;2023-02-28T00:49:35;5.07;;;2.93;;
5199;SDS011;2619;47.868;11.892;2023-02-28T00:52:01;6.67;;;3.67;;
5199;SDS011;2619;47.868;11.892;2023-02-28T00:54:26;7.50;;;3.63;;
5199;SDS011;2619;47.868;11.892;2023-02-28T00:56:52;7.40;;;3.10;;
5199;SDS011;2619;47.868;11.892;2023-02-28T00:59:17;4.83;;;3.40;;
5199;SDS011;2619;47.868;11.892;2023-02-28T01:01:44;5.40;;;2.80;;
5199;SDS011;2619;47.868;11.892;2023-02-28T01:04:11;5.10;;;3.23;;
5199;SDS011;2619;47.868;11.892;2023-02-28T01:06:37;8.87;;;3.67;;
5199;SDS011;2619;47.868;11.892;2023-02-28T01:09:04;7.23;;;3.30;;
5199;SDS011;2619;47.868;11.892;2023-02-28T01:11:31;9.83;;;4.20;;
5199;SDS011;2619;47.868;11.892;2023-02-28T01:13:57;7.17;;;3.53;;
5199;SDS011;2619;47.868;11.892;2023-02-28T01:16:23;6.80;;;3.77;;
5199;SDS011;2619;47.868;11.892;2023-02-28T01:18:49;3.87;;;2.67;;
5199;SDS011;2619;47.868;11.892;2023-02-28T01:21:15;5.60;;;3.30;;
5199;SDS011;2619;47.868;11.892;2023-02-28T01:23:42;11.03;;;4.07;;
5199;SDS011;2619;47.868;11.892;2023-02-28T01:26:09;7.00;;;2.97;;
5199;SDS011;2619;47.868;11.892;2023-02-28T01:28:37;5.00;;;3.27;;
5199;SDS011;2619;47.868;11.892;2023-02-28T01:31:03;5.97;;;3.17;;
5199;SDS011;2619;47.868;11.892;2023-02-28T01:33:29;6.03;;;3.40;;
5199;SDS011;2619;47.868;11.892;2023-02-28T01:38:30;8.48;;;3.92;;
5199;SDS011;2619;47.868;11.892;2023-02-28T01:40:56;7.15;;;3.28;;
5199;SDS011;2619;47.868;11.892;2023-02-28T01:43:23;6.93;;;3.60;;
5199;SDS011;2619;47.868;11.892;2023-02-28T01:45:56;5.67;;;2.70;;
5199;SDS011;2619;47.868;11.892;2023-02-28T01:48:24;7.20;;;3.30;;
5199;SDS011;2619;47.868;11.892;2023-02-28T01:50:52;5.80;;;2.93;;
5199;SDS011;2619;47.868;11.892;2023-02-28T01:53:21;4.03;;;3.00;;
5199;SDS011;2619;47.868;11.892;2023-02-28T01:55:54;5.67;;;3.53;;
5199;SDS011;2619;47.868;11.892;2023-02-28T01:58:20;5.43;;;3.70;;
5199;SDS011;2619;47.868;11.892;2023-02-28T02:00:45;5.23;;;3.10;;
5199;SDS011;2619;47.868;11.892;2023-02-28T02:03:15;5.17;;;2.90;;
5199;SDS011;2619;47.868;11.892;2023-02-28T02:05:44;6.20;;;3.90;;
5199;SDS011;2619;47.868;11.892;2023-02-28T02:08:13;7.95;;;3.17;;
5199;SDS011;2619;47.868;11.892;2023-02-28T02:10:45;5.28;;;2.97;;
5199;SDS011;2619;47.868;11.892;2023-02-28T02:18:59;7.30;;;3.40;;
5199;SDS011;2619;47.868;11.892;2023-02-28T02:35:07;6.05;;;3.25;;
5199;SDS011;2619;47.868;11.892;2023-02-28T02:37:59;5.03;;;3.55;;
5199;SDS011;2619;47.868;11.892;2023-02-28T02:40:43;9.82;;;4.32;;
5199;SDS011;2619;47.868;11.892;2023-02-28T02:43:20;4.50;;;3.08;;
5199;SDS011;2619;47.868;11.892;2023-02-28T02:45:53;6.07;;;3.80;;
5199;SDS011;2619;47.868;11.892;2023-02-28T02:48:27;5.63;;;3.10;;
5199;SDS011;2619;47.868;11.892;2023-02-28T02:50:58;4.78;;;3.10;;
5199;SDS011;2619;47.868;11.892;2023-02-28T02:53:30;5.22;;;3.70;;
5199;SDS011;2619;47.868;11.892;2023-02-28T02:56:03;7.95;;;3.72;;
5199;SDS011;2619;47.868;11.892;2023-02-28T02:58:32;5.57;;;4.10;;
5199;SDS011;2619;47.868;11.892;2023-02-28T03:01:00;6.95;;;3.03;;
5199;SDS011;2619;47.868;11.892;2023-02-28T03:03:28;6.35;;;3.55;;
5199;SDS011;2619;47.868;11.892;2023-02-28T03:06:00;7.00;;;4.03;;
5199;SDS011;2619;47.868;11.892;2023-02-28T03:08:27;6.32;;;3.70;;
5199;SDS011;2619;47.868;11.892;2023-02-28T03:10:58;4.47;;;2.60;;
5199;SDS011;2619;47.868;11.892;2023-02-28T03:19:15;8.25;;;3.22;;
5199;SDS011;2619;47.868;11.892;2023-02-28T03:27:33;6.13;;;4.00;;
5199;SDS011;2619;47.868;11.892;2023-02-28T03:30:09;11.38;;;4.28;;
5199;SDS011;2619;47.868;11.892;2023-02-28T03:33:27;7.25;;;3.80;;
5199;SDS011;2619;47.868;11.892;2023-02-28T03:35:54;7.75;;;4.38;;
5199;SDS011;2619;47.868;11.892;2023-02-28T03:38:26;5.78;;;3.78;;
5199;SDS011;2619;47.868;11.892;2023-02-28T03:41:40;7.55;;;4.20;;
5199;SDS011;2619;47.868;11.892;2023-02-28T03:43:54;5.93;;;3.53;;
5199;SDS011;2619;47.868;11.892;2023-02-28T03:46:23;9.10;;;4.45;;
5199;SDS011;2619;47.868;11.892;2023-02-28T03:49:09;9.45;;;4.68;;
5199;SDS011;2619;47.868;11.892;2023-02-28T03:51:41;9.02;;;4.32;;
5199;SDS011;2619;47.868;11.892;2023-02-28T03:54:18;6.65;;;4.35;;
5199;SDS011;2619;47.868;11.892;2023-02-28T03:56:50;8.15;;;4.03;;
5199;SDS011;2619;47.868;11.892;2023-02-28T03:59:24;6.15;;;3.20;;
5199;SDS011;2619;47.868;11.892;2023-02-28T04:01:54;9.02;;;4.05;;
5199;SDS011;2619;47.868;11.892;2023-02-28T04:04:20;9.30;;;4.90;;
5199;SDS011;2619;47.868;11.892;2023-02-28T04:06:49;6.43;;;3.88;;
5199;SDS011;2619;47.868;11.892;2023-02-28T04:09:16;12.82;;;5.00;;
5199;SDS011;2619;47.868;11.892;2023-02-28T04:11:42;6.07;;;4.30;;
5199;SDS011;2619;47.868;11.892;2023-02-28T04:14:09;7.75;;;3.85;;
5199;SDS011;2619;47.868;11.892;2023-02-28T04:16:36;8.52;;;4.18;;
5199;SDS011;2619;47.868;11.892;2023-02-28T04:19:04;9.20;;;4.60;;
5199;SDS011;2619;47.868;11.892;2023-02-28T04:21:32;8.02;;;3.85;;
5199;SDS011;2619;47.868;11.892;2023-02-28T04:24:04;16.98;;;8.05;;
5199;SDS011;2619;47.868;11.892;2023-02-28T04:26:30;6.93;;;4.35;;
5199;SDS011;2619;47.868;11.892;2023-02-28T04:28:57;11.13;;;4.60;;
5199;SDS011;2619;47.868;11.892;2023-02-28T04:31:23;11.60;;;5.25;;
5199;SDS011;2619;47.868;11.892;2023-02-28T04:33:48;8.83;;;5.13;;
5199;SDS011;2619;47.868;11.892;2023-02-28T04:36:14;8.23;;;4.30;;
5199;SDS011;2619;47.868;11.892;2023-02-28T04:38:42;11.90;;;6.03;;
5199;SDS011;2619;47.868;11.892;2023-02-28T04:41:08;10.52;;;5.50;;
5199;SDS011;2619;47.868;11.892;2023-02-28T04:43:34;8.73;;;4.33;;
5199;SDS011;2619;47.868;11.892;2023-02-28T04:46:00;8.53;;;4.27;;
5199;SDS011;2619;47.868;11.892;2023-02-28T04:48:28;8.10;;;5.72;;
5199;SDS011;2619;47.868;11.892;2023-02-28T04:50:55;9.15;;;4.60;;
5199;SDS011;2619;47.868;11.892;2023-02-28T04:53:25;7.75;;;4.80;;
5199;SDS011;2619;47.868;11.892;2023-02-28T04:55:53;10.68;;;5.43;;
5199;SDS011;2619;47.868;11.892;2023-02-28T04:58:19;11.27;;;5.25;;
5199;SDS011;2619;47.868;11.892;2023-02-28T05:00:47;9.53;;;4.70;;
5199;SDS011;2619;47.868;11.892;2023-02-28T05:03:13;12.10;;;5.93;;
5199;SDS011;2619;47.868;11.892;2023-02-28T05:05:39;11.03;;;6.50;;
5199;SDS011;2619;47.868;11.892;2023-02-28T05:08:04;10.00;;;5.60;;
5199;SDS011;2619;47.868;11.892;2023-02-28T05:10:30;9.50;;;5.67;;
5199;SDS011;2619;47.868;11.892;2023-02-28T05:12:56;8.60;;;4.90;;
5199;SDS011;2619;47.868;11.892;2023-02-28T05:15:21;12.60;;;6.50;;
5199;SDS011;2619;47.868;11.892;2023-02-28T05:17:47;11.37;;;5.20;;
5199;SDS011;2619;47.868;11.892;2023-02-28T05:20:13;11.63;;;6.87;;
5199;SDS011;2619;47.868;11.892;2023-02-28T05:22:41;11.93;;;6.30;;
5199;SDS011;2619;47.868;11.892;2023-02-28T05:25:10;12.93;;;5.83;;
5199;SDS011;2619;47.868;11.892;2023-02-28T05:27:38;10.73;;;5.37;;
5199;SDS011;2619;47.868;11.892;2023-02-28T05:30:04;12.17;;;7.23;;
5199;SDS011;2619;47.868;11.892;2023-02-28T05:32:31;12.00;;;5.70;;
5199;SDS011;2619;47.868;11.892;2023-02-28T05:34:56;7.00;;;4.77;;
5199;SDS011;2619;47.868;11.892;2023-02-28T05:37:22;9.93;;;5.60;;
5199;SDS011;2619;47.868;11.892;2023-02-28T05:39:47;10.90;;;6.40;;
5199;SDS011;2619;47.868;11.892;2023-02-28T05:42:13;11.20;;;5.87;;
5199;SDS011;2619;47.868;11.892;2023-02-28T05:44:39;12.07;;;7.40;;
5199;SDS011;2619;47.868;11.892;2023-02-28T05:47:04;13.00;;;7.70;;
5199;SDS011;2619;47.868;11.892;2023-02-28T05:49:30;15.13;;;6.73;;
5199;SDS011;2619;47.868;11.892;2023-02-28T05:51:55;11.70;;;7.17;;
5199;SDS011;2619;47.868;11.892;2023-02-28T05:54:21;20.20;;;7.97;;
5199;SDS011;2619;47.868;11.892;2023-02-28T05:56:46;14.10;;;7.70;;
5199;SDS011;2619;47.868;11.892;2023-02-28T05:59:12;12.70;;;6.87;;
5199;SDS011;2619;47.868;11.892;2023-02-28T06:01:39;14.67;;;7.50;;
5199;SDS011;2619;47.868;11.892;2023-02-28T06:04:07;19.20;;;8.73;;
5199;SDS011;2619;47.868;11.892;2023-02-28T06:06:34;13.83;;;8.20;;
5199;SDS011;2619;47.868;11.892;2023-02-28T06:09:02;19.73;;;7.30;;
5199;SDS011;2619;47.868;11.892;2023-02-28T06:11:31;15.73;;;7.60;;
5199;SDS011;2619;47.868;11.892;2023-02-28T06:13:57;13.00;;;8.40;;
5199;SDS011;2619;47.868;11.892;2023-02-28T06:16:27;18.03;;;9.00;;
5199;SDS011;2619;47.868;11.892;2023-02-28T06:18:54;14.63;;;7.80;;
5199;SDS011;2619;47.868;11.892;2023-02-28T06:21:22;18.00;;;8.67;;
5199;SDS011;2619;47.868;11.892;2023-02-28T06:23:48;16.40;;;10.10;;
5199;SDS011;2619;47.868;11.892;2023-02-28T06:26:13;20.53;;;10.10;;
5199;SDS011;2619;47.868;11.892;2023-02-28T06:28:39;19.17;;;9.67;;
5199;SDS011;2619;47.868;11.892;2023-02-28T06:31:06;18.07;;;9.70;;
5199;SDS011;2619;47.868;11.892;2023-02-28T06:33:36;18.53;;;10.27;;
5199;SDS011;2619;47.868;11.892;2023-02-28T06:36:03;18.63;;;10.20;;
5199;SDS011;2619;47.868;11.892;2023-02-28T06:38:29;19.77;;;10.83;;
5199;SDS011;2619;47.868;11.892;2023-02-28T06:40:56;19.00;;;9.80;;
5199;SDS011;2619;47.868;11.892;2023-02-28T06:43:23;24.63;;;12.37;;
5199;SDS011;2619;47.868;11.892;2023-02-28T06:45:49;20.37;;;11.50;;
5199;SDS011;2619;47.868;11.892;2023-02-28T06:48:15;15.50;;;9.60;;
5199;SDS011;2619;47.868;11.892;2023-02-28T06:50:41;23.20;;;11.37;;
5199;SDS011;2619;47.868;11.892;2023-02-28T06:53:06;19.93;;;10.40;;
5199;SDS011;2619;47.868;11.892;2023-02-28T06:55:37;18.27;;;10.00;;
5199;SDS011;2619;47.868;11.892;2023-02-28T06:58:04;22.70;;;12.40;;
5199;SDS011;2619;47.868;11.892;2023-02-28T07:00:39;24.20;;;11.03;;
5199;SDS011;2619;47.868;11.892;2023-02-28T07:03:06;18.73;;;10.80;;
5199;SDS011;2619;47.868;11.892;2023-02-28T07:05:31;23.53;;;11.20;;
5199;SDS011;2619;47.868;11.892;2023-02-28T07:08:00;22.10;;;12.07;;
5199;SDS011;2619;47.868;11.892;2023-02-28T07:10:26;21.57;;;12.80;;
5199;SDS011;2619;47.868;11.892;2023-02-28T07:12:51;21.47;;;12.10;;
5199;SDS011;2619;47.868;11.892;2023-02-28T07:15:17;24.60;;;12.47;;
5199;SDS011;2619;47.868;11.892;2023-02-28T07:17:42;25.00;;;13.27;;
5199;SDS011;2619;47.868;11.892;2023-02-28T07:20:08;22.93;;;13.43;;
5199;SDS011;2619;47.868;11.892;2023-02-28T07:22:34;23.77;;;12.10;;
5199;SDS011;2619;47.868;11.892;2023-02-28T07:25:00;25.53;;;12.17;;
5199;SDS011;2619;47.868;11.892;2023-02-28T07:27:25;25.93;;;14.23;;
5199;SDS011;2619;47.868;11.892;2023-02-28T07:29:51;23.27;;;12.27;;
5199;SDS011;2619;47.868;11.892;2023-02-28T07:32:18;24.07;;;13.93;;
5199;SDS011;2619;47.868;11.892;2023-02-28T07:34:44;22.73;;;12.60;;
5199;SDS011;2619;47.868;11.892;2023-02-28T07:37:10;21.00;;;12.40;;
5199;SDS011;2619;47.868;11.892;2023-02-28T07:39:36;24.73;;;13.07;;
5199;SDS011;2619;47.868;11.892;2023-02-28T07:42:05;23.50;;;13.17;;
5199;SDS011;2619;47.868;11.892;2023-02-28T07:44:31;24.67;;;14.07;;
5199;SDS011;2619;47.868;11.892;2023-02-28T07:46:57;27.70;;;14.20;;
5199;SDS011;2619;47.868;11.892;2023-02-28T07:49:23;25.57;;;13.27;;
5199;SDS011;2619;47.868;11.892;2023-02-28T07:51:48;28.50;;;13.73;;
5199;SDS011;2619;47.868;11.892;2023-02-28T07:54:14;20.80;;;12.20;;
5199;SDS011;2619;47.868;11.892;2023-02-28T07:56:40;27.33;;;14.40;;
5199;SDS011;2619;47.868;11.892;2023-02-28T07:59:05;28.10;;;14.00;;
5199;SDS011;2619;47.868;11.892;2023-02-28T08:01:31;25.27;;;12.90;;
5199;SDS011;2619;47.868;11.892;2023-02-28T08:03:57;22.63;;;12.77;;
5199;SDS011;2619;47.868;11.892;2023-02-28T08:06:23;28.67;;;13.87;;
5199;SDS011;2619;47.868;11.892;2023-02-28T08:08:49;23.67;;;12.57;;
5199;SDS011;2619;47.868;11.892;2023-02-28T08:11:16;24.63;;;14.00;;
5199;SDS011;2619;47.868;11.892;2023-02-28T08:13:42;22.20;;;11.50;;
5199;SDS011;2619;47.868;11.892;2023-02-28T08:16:09;23.53;;;13.90;;
5199;SDS011;2619;47.868;11.892;2023-02-28T08:18:35;26.73;;;12.60;;
5199;SDS011;2619;47.868;11.892;2023-02-28T08:21:10;21.23;;;12.20;;
5199;SDS011;2619;47.868;11.892;2023-02-28T08:23:37;22.23;;;13.33;;
5199;SDS011;2619;47.868;11.892;2023-02-28T08:26:03;20.40;;;11.83;;
5199;SDS011;2619;47.868;11.892;2023-02-28T08:28:30;19.43;;;12.13;;
5199;SDS011;2619;47.868;11.892;2023-02-28T08:30:56;19.57;;;13.30;;
5199;SDS011;2619;47.868;11.892;2023-02-28T08:33:22;23.13;;;12.10;;
5199;SDS011;2619;47.868;11.892;2023-02-28T08:35:48;20.03;;;11.00;;
5199;SDS011;2619;47.868;11.892;2023-02-28T08:38:17;19.27;;;11.00;;
5199;SDS011;2619;47.868;11.892;2023-02-28T08:40:42;21.50;;;12.10;;
5199;SDS011;2619;47.868;11.892;2023-02-28T08:43:08;21.50;;;13.10;;
5199;SDS011;2619;47.868;11.892;2023-02-28T08:45:33;22.07;;;11.70;;
5199;SDS011;2619;47.868;11.892;2023-02-28T08:47:59;17.90;;;11.30;;
5199;SDS011;2619;47.868;11.892;2023-02-28T08:50:25;23.47;;;12.13;;
5199;SDS011;2619;47.868;11.892;2023-02-28T08:52:50;21.70;;;13.00;;
5199;SDS011;2619;47.868;11.892;2023-02-28T08:55:16;23.57;;;11.90;;
5199;SDS011;2619;47.868;11.892;2023-02-28T08:57:41;23.43;;;12.40;;
5199;SDS011;2619;47.868;11.892;2023-02-28T09:00:07;23.50;;;11.70;;
5199;SDS011;2619;47.868;11.892;2023-02-28T09:02:33;19.73;;;12.70;;
5199;SDS011;2619;47.868;11.892;2023-02-28T09:04:59;22.13;;;12.50;;
5199;SDS011;2619;47.868;11.892;2023-02-28T09:07:24;17.37;;;11.73;;
5199;SDS011;2619;47.868;11.892;2023-02-28T09:09:50;17.63;;;11.00;;
5199;SDS011;2619;47.868;11.892;2023-02-28T09:12:19;24.40;;;13.07;;
5199;SDS011;2619;47.868;11.892;2023-02-28T09:14:46;20.50;;;11.73;;
5199;SDS011;2619;47.868;11.892;2023-02-28T09:17:11;27.13;;;13.40;;
5199;SDS011;2619;47.868;11.892;2023-02-28T09:19:37;19.37;;;11.10;;
5199;SDS011;2619;47.868;11.892;2023-02-28T09:22:02;18.83;;;10.83;;
5199;SDS011;2619;47.868;11.892;2023-02-28T09:24:28;18.80;;;12.50;;
5199;SDS011;2619;47.868;11.892;2023-02-28T09:26:56;22.00;;;12.17;;
5199;SDS011;2619;47.868;11.892;2023-02-28T09:29:22;23.73;;;13.50;;
5199;SDS011;2619;47.868;11.892;2023-02-28T09:31:47;20.90;;;11.53;;
5199;SDS011;2619;47.868;11.892;2023-02-28T09:34:13;18.70;;;12.60;;
5199;SDS011;2619;47.868;11.892;2023-02-28T09:36:39;18.33;;;11.67;;
5199;SDS011;2619;47.868;11.892;2023-02-28T09:39:04;22.53;;;12.83;;
5199;SDS011;2619;47.868;11.892;2023-02-28T09:41:37;21.10;;;12.07;;
5199;SDS011;2619;47.868;11.892;2023-02-28T09:44:12;22.77;;;12.00;;
5199;SDS011;2619;47.868;11.892;2023-02-28T09:47:04;21.43;;;12.13;;
5199;SDS011;2619;47.868;11.892;2023-02-28T09:49:43;21.87;;;12.77;;
5199;SDS011;2619;47.868;11.892;2023-02-28T09:52:20;21.30;;;11.73;;
5199;SDS011;2619;47.868;11.892;2023-02-28T09:54:49;20.27;;;12.40;;
5199;SDS011;2619;47.868;11.892;2023-02-28T10:05:17;26.93;;;12.03;;
5199;SDS011;2619;47.868;11.892;2023-02-28T10:10:45;25.67;;;14.63;;
5199;SDS011;2619;47.868;11.892;2023-02-28T10:13:16;25.93;;;14.20;;
5199;SDS011;2619;47.868;11.892;2023-02-28T10:15:53;18.67;;;12.17;;
5199;SDS011;2619;47.868;11.892;2023-02-28T10:18:46;21.80;;;12.47;;
5199;SDS011;2619;47.868;11.892;2023-02-28T10:21:35;25.20;;;13.80;;
5199;SDS011;2619;47.868;11.892;2023-02-28T10:24:23;21.87;;;13.00;;
5199;SDS011;2619;47.868;11.892;2023-02-28T10:26:58;21.93;;;13.13;;
5199;SDS011;2619;47.868;11.892;2023-02-28T10:29:30;18.60;;;11.33;;
5199;SDS011;2619;47.868;11.892;2023-02-28T10:31:58;24.33;;;12.47;;
5199;SDS011;2619;47.868;11.892;2023-02-28T10:34:27;20.33;;;11.80;;
5199;SDS011;2619;47.868;11.892;2023-02-28T10:36:53;21.73;;;13.17;;
5199;SDS011;2619;47.868;11.892;2023-02-28T10:42:18;19.13;;;12.00;;
5199;SDS011;2619;47.868;11.892;2023-02-28T10:47:39;23.03;;;12.93;;
5199;SDS011;2619;47.868;11.892;2023-02-28T10:52:54;20.40;;;12.70;;
5199;SDS011;2619;47.868;11.892;2023-02-28T10:55:30;18.73;;;11.40;;
5199;SDS011;2619;47.868;11.892;2023-02-28T10:57:56;22.10;;;13.83;;
5199;SDS011;2619;47.868;11.892;2023-02-28T11:00:23;21.70;;;12.57;;
5199;SDS011;2619;47.868;11.892;2023-02-28T11:02:50;28.40;;;13.03;;
5199;SDS011;2619;47.868;11.892;2023-02-28T11:05:27;19.53;;;12.27;;
5199;SDS011;2619;47.868;11.892;2023-02-28T11:07:55;19.83;;;12.63;;
5199;SDS011;2619;47.868;11.892;2023-02-28T11:10:31;22.07;;;13.73;;
5199;SDS011;2619;47.868;11.892;2023-02-28T11:12:59;25.00;;;12.03;;
5199;SDS011;2619;47.868;11.892;2023-02-28T11:15:30;18.37;;;12.07;;
5199;SDS011;2619;47.868;11.892;2023-02-28T11:18:01;17.57;;;10.97;;
5199;SDS011;2619;47.868;11.892;2023-02-28T11:20:32;19.97;;;12.90;;
5199;SDS011;2619;47.868;11.892;2023-02-28T11:23:00;19.13;;;12.10;;
5199;SDS011;2619;47.868;11.892;2023-02-28T11:25:34;20.40;;;12.23;;
5199;SDS011;2619;47.868;11.892;2023-02-28T11:28:08;20.47;;;12.47;;
5199;SDS011;2619;47.868;11.892;2023-02-28T11:31:08;15.50;;;11.20;;
5199;SDS011;2619;47.868;11.892;2023-02-28T11:36:19;20.47;;;11.83;;
5199;SDS011;2619;47.868;11.892;2023-02-28T11:38:50;21.30;;;11.00;;
5199;SDS011;2619;47.868;11.892;2023-02-28T11:49:32;17.33;;;11.70;;
5199;SDS011;2619;47.868;11.892;2023-02-28T11:52:06;20.40;;;11.87;;
5199;SDS011;2619;47.868;11.892;2023-02-28T12:03:27;19.63;;;12.37;;
5199;SDS011;2619;47.868;11.892;2023-02-28T12:09:08;20.57;;;12.30;;
5199;SDS011;2619;47.868;11.892;2023-02-28T12:14:25;18.03;;;11.80;;
5199;SDS011;2619;47.868;11.892;2023-02-28T12:17:18;18.57;;;12.17;;
5199;SDS011;2619;47.868;11.892;2023-02-28T12:27:39;19.03;;;10.93;;
5199;SDS011;2619;47.868;11.892;2023-02-28T12:32:55;21.17;;;12.30;;
5199;SDS011;2619;47.868;11.892;2023-02-28T12:35:37;19.27;;;12.27;;
5199;SDS011;2619;47.868;11.892;2023-02-28T12:43:26;18.37;;;12.37;;
5199;SDS011;2619;47.868;11.892;2023-02-28T12:46:02;18.20;;;11.80;;
5199;SDS011;2619;47.868;11.892;2023-02-28T12:48:46;15.33;;;11.60;;
5199;SDS011;2619;47.868;11.892;2023-02-28T12:51:15;17.50;;;11.33;;
5199;SDS011;2619;47.868;11.892;2023-02-28T13:10:11;21.07;;;11.50;;
5199;SDS011;2619;47.868;11.892;2023-02-28T13:12:42;19.60;;;12.33;;
5199;SDS011;2619;47.868;11.892;2023-02-28T13:15:18;23.10;;;12.93;;
5199;SDS011;2619;47.868;11.892;2023-02-28T13:17:49;22.23;;;12.23;;
5199;SDS011;2619;47.868;11.892;2023-02-28T13:20:17;20.57;;;12.67;;
5199;SDS011;2619;47.868;11.892;2023-02-28T13:22:49;19.63;;;11.27;;
5199;SDS011;2619;47.868;11.892;2023-02-28T13:27:58;20.67;;;13.53;;
5199;SDS011;2619;47.868;11.892;2023-02-28T13:38:43;21.40;;;13.37;;
5199;SDS011;2619;47.868;11.892;2023-02-28T13:46:36;19.13;;;12.00;;
5199;SDS011;2619;47.868;11.892;2023-02-28T13:51:50;22.23;;;12.33;;
5199;SDS011;2619;47.868;11.892;2023-02-28T13:54:19;21.70;;;12.80;;
5199;SDS011;2619;47.868;11.892;2023-02-28T13:59:50;24.87;;;14.10;;
5199;SDS011;2619;47.868;11.892;2023-02-28T14:05:46;21.43;;;13.63;;
5199;SDS011;2619;47.868;11.892;2023-02-28T14:08:30;22.77;;;13.10;;
5199;SDS011;2619;47.868;11.892;2023-02-28T14:11:03;20.30;;;12.40;;
5199;SDS011;2619;47.868;11.892;2023-02-28T14:13:41;23.33;;;13.83;;
5199;SDS011;2619;47.868;11.892;2023-02-28T14:16:22;23.43;;;14.37;;
5199;SDS011;2619;47.868;11.892;2023-02-28T14:19:00;20.20;;;11.83;;
5199;SDS011;2619;47.868;11.892;2023-02-28T14:21:34;24.73;;;14.87;;
5199;SDS011;2619;47.868;11.892;2023-02-28T14:32:27;23.27;;;13.77;;
5199;SDS011;2619;47.868;11.892;2023-02-28T14:37:26;19.53;;;12.83;;
5199;SDS011;2619;47.868;11.892;2023-02-28T14:39:57;21.60;;;13.70;;
5199;SDS011;2619;47.868;11.892;2023-02-28T14:42:34;23.70;;;14.03;;
5199;SDS011;2619;47.868;11.892;2023-02-28T14:45:03;25.90;;;13.30;;
5199;SDS011;2619;47.868;11.892;2023-02-28T14:47:32;22.63;;;12.93;;
5199;SDS011;2619;47.868;11.892;2023-02-28T14:50:00;24.20;;;12.90;;
5199;SDS011;2619;47.868;11.892;2023-02-28T14:52:27;20.13;;;12.97;;
5199;SDS011;2619;47.868;11.892;2023-02-28T14:55:01;21.97;;;13.33;;
5199;SDS011;2619;47.868;11.892;2023-02-28T14:57:39;19.30;;;12.97;;
5199;SDS011;2619;47.868;11.892;2023-02-28T15:02:46;24.30;;;13.20;;
5199;SDS011;2619;47.868;11.892;2023-02-28T15:07:46;20.27;;;12.47;;
5199;SDS011;2619;47.868;11.892;2023-02-28T15:10:20;18.53;;;12.37;;
5199;SDS011;2619;47.868;11.892;2023-02-28T15:12:54;20.43;;;12.93;;
5199;SDS011;2619;47.868;11.892;2023-02-28T15:15:22;20.80;;;13.90;;
5199;SDS011;2619;47.868;11.892;2023-02-28T15:17:52;19.13;;;12.50;;
5199;SDS011;2619;47.868;11.892;2023-02-28T15:20:21;22.50;;;11.90;;
5199;SDS011;2619;47.868;11.892;2023-02-28T15:22:49;20.23;;;12.43;;
5199;SDS011;2619;47.868;11.892;2023-02-28T15:25:21;23.50;;;13.50;;
5199;SDS011;2619;47.868;11.892;2023-02-28T15:27:52;20.93;;;13.50;;
5199;SDS011;2619;47.868;11.892;2023-02-28T15:30:21;26.37;;;14.23;;
5199;SDS011;2619;47.868;11.892;2023-02-28T15:33:06;24.77;;;13.50;;
5199;SDS011;2619;47.868;11.892;2023-02-28T15:35:33;23.30;;;12.83;;
5199;SDS011;2619;47.868;11.892;2023-02-28T15:40:49;25.57;;;13.30;;
5199;SDS011;2619;47.868;11.892;2023-02-28T15:43:29;22.40;;;13.03;;
5199;SDS011;2619;47.868;11.892;2023-02-28T15:45:59;22.83;;;13.70;;
5199;SDS011;2619;47.868;11.892;2023-02-28T15:48:28;23.87;;;12.90;;
5199;SDS011;2619;47.868;11.892;2023-02-28T15:53:33;21.90;;;13.27;;
5199;SDS011;2619;47.868;11.892;2023-02-28T15:56:03;24.73;;;13.37;;
5199;SDS011;2619;47.868;11.892;2023-02-28T15:58:32;22.00;;;12.87;;
5199;SDS011;2619;47.868;11.892;2023-02-28T16:01:04;23.57;;;14.07;;
5199;SDS011;2619;47.868;11.892;2023-02-28T16:03:47;22.50;;;14.17;;
5199;SDS011;2619;47.868;11.892;2023-02-28T16:08:59;23.20;;;13.40;;
5199;SDS011;2619;47.868;11.892;2023-02-28T16:11:25;20.87;;;12.90;;
5199;SDS011;2619;47.868;11.892;2023-02-28T16:13:51;24.43;;;13.63;;
5199;SDS011;2619;47.868;11.892;2023-02-28T16:16:21;19.70;;;12.30;;
5199;SDS011;2619;47.868;11.892;2023-02-28T16:18:49;22.83;;;14.30;;
5199;SDS011;2619;47.868;11.892;2023-02-28T16:21:15;25.73;;;14.23;;
5199;SDS011;2619;47.868;11.892;2023-02-28T16:23:41;24.13;;;13.87;;
5199;SDS011;2619;47.868;11.892;2023-02-28T16:26:06;22.23;;;13.60;;
5199;SDS011;2619;47.868;11.892;2023-02-28T16:28:34;23.73;;;13.80;;
5199;SDS011;2619;47.868;11.892;2023-02-28T16:31:02;20.83;;;12.17;;
5199;SDS011;2619;47.868;11.892;2023-02-28T16:33:29;27.17;;;13.00;;
5199;SDS011;2619;47.868;11.892;2023-02-28T16:35:56;23.23;;;12.47;;
5199;SDS011;2619;47.868;11.892;2023-02-28T16:38:21;26.03;;;13.73;;
5199;SDS011;2619;47.868;11.892;2023-02-28T16:40:49;21.87;;;12.23;;
5199;SDS011;2619;47.868;11.892;2023-02-28T16:43:17;23.87;;;12.57;;
5199;SDS011;2619;47.868;11.892;2023-02-28T16:45:46;29.00;;;15.10;;
5199;SDS011;2619;47.868;11.892;2023-02-28T16:48:13;22.13;;;12.93;;
5199;SDS011;2619;47.868;11.892;2023-02-28T16:50:40;23.70;;;13.50;;
5199;SDS011;2619;47.868;11.892;2023-02-28T16:53:07;23.80;;;12.17;;
5199;SDS011;2619;47.868;11.892;2023-02-28T16:55:33;21.40;;;12.60;;
5199;SDS011;2619;47.868;11.892;2023-02-28T16:58:00;25.77;;;15.03;;
5199;SDS011;2619;47.868;11.892;2023-02-28T17:00:27;25.50;;;13.73;;
5199;SDS011;2619;47.868;11.892;2023-02-28T17:02:55;24.90;;;15.43;;
5199;SDS011;2619;47.868;11.892;2023-02-28T17:05:21;26.03;;;14.10;;
5199;SDS011;2619;47.868;11.892;2023-02-28T17:07:47;26.03;;;13.37;;
5199;SDS011;2619;47.868;11.892;2023-02-28T17:10:15;24.83;;;13.60;;
5199;SDS011;2619;47.868;11.892;2023-02-28T17:12:43;23.87;;;13.33;;
5199;SDS011;2619;47.868;11.892;2023-02-28T17:15:09;24.13;;;14.07;;
5199;SDS011;2619;47.868;11.892;2023-02-28T17:17:36;27.97;;;14.53;;
5199;SDS011;2619;47.868;11.892;2023-02-28T17:20:02;24.17;;;14.27;;
5199;SDS011;2619;47.868;11.892;2023-02-28T17:22:29;20.30;;;13.53;;
5199;SDS011;2619;47.868;11.892;2023-02-28T17:24:55;21.37;;;13.60;;
5199;SDS011;2619;47.868;11.892;2023-02-28T17:27:20;26.13;;;13.50;;
5199;SDS011;2619;47.868;11.892;2023-02-28T17:29:46;26.87;;;15.47;;
5199;SDS011;2619;47.868;11.892;2023-02-28T17:32:12;21.83;;;13.10;;
5199;SDS011;2619;47.868;11.892;2023-02-28T17:34:38;34.37;;;17.97;;